Time;durP1;ratioP1;P1;durP2;ratioP2;P2;SDS_P1;SDS_P2;PMS_P1;PMS_P2;Temp;Humidity;BMP_temperature;BMP_pressure;BME280_temperature;BME280_humidity;BME280_pressure;Samples;Min_cycle;Max_cycle;Signal;HPM_P1;HPM_P2
2021/09/04 00:00:04;;;;;;;;;69.00;57.00;29.40;30.60;;;;;;694005;28;5946;-80
2021/09/04 00:00:25;;;;;;;;;68.00;55.00;29.40;30.50;;;;;;693917;28;6829;-79
2021/09/04 00:00:46;;;;;;;;;69.60;57.20;29.40;30.50;;;;;;694090;28;6083;-78
2021/09/04 00:01:07;;;;;;;;;69.75;57.25;29.40;30.50;;;;;;693918;28;5969;-80
2021/09/04 00:01:27;;;;;;;;;69.75;59.00;29.40;30.50;;;;;;694159;28;6171;-79
2021/09/04 00:01:48;;;;;;;;;65.00;53.75;29.40;30.50;;;;;;695318;28;6149;-81
2021/09/04 00:02:11;;;;;;;;;70.25;54.25;29.40;30.50;;;;;;696897;28;6302;-78
2021/09/04 00:02:32;;;;;;;;;68.75;57.50;29.40;30.50;;;;;;696816;28;6289;-77
2021/09/04 00:02:53;;;;;;;;;69.00;56.75;29.40;30.40;;;;;;696787;28;6171;-79
2021/09/04 00:03:14;;;;;;;;;68.00;56.00;29.40;30.40;;;;;;696843;28;5996;-78
2021/09/04 00:03:35;;;;;;;;;69.50;56.50;29.40;30.40;;;;;;696727;28;6093;-79
2021/09/04 00:03:55;;;;;;;;;68.00;56.50;29.40;30.40;;;;;;696843;28;6345;-79
2021/09/04 00:04:16;;;;;;;;;64.50;51.00;29.30;30.30;;;;;;696689;28;5720;-79
2021/09/04 00:04:38;;;;;;;;;67.20;52.80;29.30;29.60;;;;;;696959;28;6109;-78
2021/09/04 00:04:59;;;;;;;;;69.60;58.00;29.40;30.40;;;;;;696700;28;6533;-79
2021/09/04 00:05:20;;;;;;;;;71.00;57.20;29.30;30.20;;;;;;696985;28;6100;-78
2021/09/04 00:05:40;;;;;;;;;69.00;58.00;29.40;30.30;;;;;;696958;28;6092;-79
2021/09/04 00:06:01;;;;;;;;;69.50;56.25;29.30;30.10;;;;;;696794;28;6112;-81
2021/09/04 00:06:22;;;;;;;;;64.80;53.00;29.30;30.20;;;;;;696860;28;6180;-80
2021/09/04 00:06:43;;;;;;;;;67.60;55.00;29.40;30.30;;;;;;696897;28;6187;-79
2021/09/04 00:07:04;;;;;;;;;66.00;52.00;29.30;30.20;;;;;;696789;28;6103;-78
2021/09/04 00:07:28;;;;;;;;;64.00;51.40;29.40;30.30;;;;;;696748;28;8023;-79
2021/09/04 00:07:48;;;;;;;;;68.80;56.80;29.40;30.20;;;;;;693717;28;6401;-79
2021/09/04 00:08:09;;;;;;;;;67.00;55.00;29.30;30.10;;;;;;693848;28;6769;-77
2021/09/04 00:08:30;;;;;;;;;64.40;52.00;29.30;30.20;;;;;;693928;28;6157;-77
2021/09/04 00:08:51;;;;;;;;;69.00;53.25;29.40;30.30;;;;;;693940;28;5977;-76
2021/09/04 00:09:13;;;;;;;;;66.00;51.25;29.40;30.20;;;;;;693931;28;5956;-78
2021/09/04 00:09:35;;;;;;;;;69.75;57.50;29.40;30.30;;;;;;694845;28;6118;-78
2021/09/04 00:09:55;;;;;;;;;69.60;55.60;29.40;30.10;;;;;;696792;28;6795;-75
2021/09/04 00:10:16;;;;;;;;;67.00;53.00;29.40;30.30;;;;;;696449;28;5980;-79
2021/09/04 00:10:37;;;;;;;;;65.00;52.00;29.40;30.20;;;;;;696662;28;6059;-78
2021/09/04 00:10:58;;;;;;;;;66.50;53.75;29.40;30.30;;;;;;696735;28;6046;-82
2021/09/04 00:11:19;;;;;;;;;66.00;53.50;29.40;30.30;;;;;;696794;28;5934;-76
2021/09/04 00:11:40;;;;;;;;;63.25;51.00;29.40;30.20;;;;;;696605;28;6445;-75
2021/09/04 00:12:01;;;;;;;;;64.50;52.75;29.40;30.20;;;;;;696761;28;6012;-79
2021/09/04 00:12:22;;;;;;;;;66.50;54.00;29.40;30.30;;;;;;696740;28;6101;-78
2021/09/04 00:12:43;;;;;;;;;65.50;53.25;29.40;30.30;;;;;;697033;28;5986;-77
2021/09/04 00:13:04;;;;;;;;;66.00;54.00;29.40;30.20;;;;;;696849;28;6109;-78
2021/09/04 00:13:24;;;;;;;;;65.00;52.67;29.40;30.30;;;;;;696353;28;5997;-81
2021/09/04 00:13:45;;;;;;;;;64.00;52.00;29.40;30.20;;;;;;696908;28;6001;-79
2021/09/04 00:14:06;;;;;;;;;63.00;51.75;29.40;30.20;;;;;;696915;28;5993;-79
2021/09/04 00:14:28;;;;;;;;;66.75;53.00;29.40;30.30;;;;;;696082;28;5941;-79
2021/09/04 00:14:49;;;;;;;;;69.50;54.00;29.40;30.10;;;;;;696673;28;6195;-78
2021/09/04 00:15:10;;;;;;;;;65.60;52.60;29.40;30.10;;;;;;696633;28;6159;-77
2021/09/04 00:15:31;;;;;;;;;68.00;56.40;29.40;30.10;;;;;;696665;28;6054;-79
2021/09/04 00:15:52;;;;;;;;;62.00;51.00;29.40;29.60;;;;;;696725;28;5982;-76
2021/09/04 00:16:13;;;;;;;;;67.00;53.00;29.40;30.30;;;;;;696931;28;6022;-77
2021/09/04 00:16:34;;;;;;;;;66.60;52.60;29.40;30.30;;;;;;696880;28;6133;-78
2021/09/04 00:16:55;;;;;;;;;66.20;51.60;29.40;30.20;;;;;;696866;28;6097;-80
2021/09/04 00:17:16;;;;;;;;;64.50;51.75;29.40;30.10;;;;;;696980;28;5990;-76
2021/09/04 00:17:39;;;;;;;;;64.00;52.00;29.40;30.10;;;;;;696820;28;4870;-75
2021/09/04 00:18:00;;;;;;;;;61.80;50.80;;;;;;;;696846;28;6992;-77
2021/09/04 00:18:20;;;;;;;;;67.00;53.75;29.30;29.40;;;;;;696833;28;6011;-80
2021/09/04 00:18:41;;;;;;;;;65.25;52.75;29.40;29.40;;;;;;696759;28;6210;-80
2021/09/04 00:19:03;;;;;;;;;70.00;53.67;29.40;29.40;;;;;;696811;28;6754;-80
2021/09/04 00:19:24;;;;;;;;;70.80;55.40;29.40;29.20;;;;;;696882;28;6234;-78
2021/09/04 00:19:44;;;;;;;;;64.50;52.00;29.40;29.40;;;;;;696857;28;6060;-82
2021/09/04 00:20:06;;;;;;;;;64.00;52.00;;;;;;;;696974;28;6067;-79
2021/09/04 00:20:27;;;;;;;;;63.25;52.00;29.40;29.50;;;;;;696977;28;6225;-80
2021/09/04 00:20:49;;;;;;;;;63.50;51.25;29.40;30.00;;;;;;696795;28;6134;-81
2021/09/04 00:21:09;;;;;;;;;64.60;51.80;29.40;31.30;;;;;;696547;28;6424;-81
2021/09/04 00:21:30;;;;;;;;;64.00;50.40;29.40;30.20;;;;;;696787;28;6172;-80
2021/09/04 00:21:52;;;;;;;;;62.40;51.00;29.40;29.40;;;;;;696652;28;6121;-80
2021/09/04 00:22:13;;;;;;;;;65.75;52.25;29.40;30.20;;;;;;696607;28;7945;-80
2021/09/04 00:22:34;;;;;;;;;63.50;50.50;29.40;30.20;;;;;;696952;28;5971;-80
2021/09/04 00:22:55;;;;;;;;;63.60;52.40;29.40;30.20;;;;;;696357;28;5991;-80
2021/09/04 00:23:16;;;;;;;;;69.00;53.00;29.40;30.00;;;;;;696800;28;5840;-79
2021/09/04 00:23:36;;;;;;;;;65.50;51.75;29.40;30.30;;;;;;693229;28;6428;-77
2021/09/04 00:23:57;;;;;;;;;62.00;50.80;29.40;30.30;;;;;;693942;28;5958;-80
2021/09/04 00:24:20;;;;;;;;;62.00;50.00;29.40;30.10;;;;;;694115;28;5832;-81
2021/09/04 00:24:42;;;;;;;;;63.40;50.60;29.40;30.20;;;;;;694488;28;6529;-78
2021/09/04 00:25:03;;;;;;;;;63.40;51.60;29.40;30.10;;;;;;696574;28;6088;-81
2021/09/04 00:25:24;;;;;;;;;61.25;49.50;29.50;30.30;;;;;;696748;28;5877;-80
2021/09/04 00:25:45;;;;;;;;;62.25;50.50;29.40;30.20;;;;;;696905;28;5964;-80
2021/09/04 00:26:05;;;;;;;;;64.75;52.00;29.50;30.30;;;;;;697123;28;5985;-78
2021/09/04 00:26:28;;;;;;;;;63.00;51.00;29.50;30.30;;;;;;696888;28;6028;-77
2021/09/04 00:26:48;;;;;;;;;64.00;50.40;29.50;30.30;;;;;;696779;28;7658;-80
2021/09/04 00:27:09;;;;;;;;;62.67;51.00;29.50;30.30;;;;;;696933;28;6096;-78
2021/09/04 00:27:30;;;;;;;;;60.50;49.00;29.50;30.40;;;;;;696804;28;6717;-81
2021/09/04 00:27:51;;;;;;;;;59.50;49.00;29.50;30.30;;;;;;697092;28;6137;-81
2021/09/04 00:28:11;;;;;;;;;65.00;51.00;29.50;30.20;;;;;;696955;28;6809;-80
2021/09/04 00:28:32;;;;;;;;;62.00;50.00;29.50;30.20;;;;;;697008;28;6042;-80
2021/09/04 00:28:53;;;;;;;;;59.80;48.40;29.50;30.30;;;;;;696802;28;6059;-80
2021/09/04 00:29:13;;;;;;;;;59.00;48.00;29.50;30.10;;;;;;696948;28;6021;-77
2021/09/04 00:29:35;;;;;;;;;64.50;52.00;29.50;30.10;;;;;;696908;28;6013;-81
2021/09/04 00:29:56;;;;;;;;;64.00;51.50;29.50;30.10;;;;;;696831;28;6634;-81
2021/09/04 00:30:16;;;;;;;;;61.00;50.00;29.50;30.20;;;;;;697023;28;6084;-80
2021/09/04 00:30:38;;;;;;;;;61.25;49.25;;;;;;;;697029;28;5872;-79
2021/09/04 00:30:58;;;;;;;;;63.00;51.00;29.50;29.40;;;;;;696401;28;8405;-82
2021/09/04 00:31:20;;;;;;;;;61.67;50.33;29.50;30.20;;;;;;696656;28;5271;-80
2021/09/04 00:31:41;;;;;;;;;61.50;49.50;29.50;30.20;;;;;;696309;28;6414;-80
2021/09/04 00:32:02;;;;;;;;;62.75;50.75;29.50;30.10;;;;;;696593;28;6251;-78
2021/09/04 00:32:24;;;;;;;;;62.00;50.00;29.50;30.10;;;;;;696798;28;6097;-79
2021/09/04 00:32:45;;;;;;;;;62.00;50.00;29.50;30.10;;;;;;696407;28;6495;-80
2021/09/04 00:33:06;;;;;;;;;62.50;50.00;29.50;30.10;;;;;;696510;28;6210;-79
2021/09/04 00:33:27;;;;;;;;;61.80;50.40;29.50;30.20;;;;;;696652;28;6134;-81
2021/09/04 00:33:48;;;;;;;;;61.00;49.00;29.50;30.20;;;;;;696458;28;6153;-81
2021/09/04 00:34:08;;;;;;;;;61.00;49.00;29.50;30.10;;;;;;693456;28;6074;-81
2021/09/04 00:34:29;;;;;;;;;58.60;47.60;29.50;30.10;;;;;;694207;28;6779;-80
2021/09/04 00:34:51;;;;;;;;;61.50;50.50;29.50;30.10;;;;;;696521;28;6061;-80
2021/09/04 00:35:13;;;;;;;;;62.00;51.00;29.50;30.20;;;;;;696549;28;7473;-81
2021/09/04 00:35:34;;;;;;;;;61.20;49.80;29.50;30.20;;;;;;696505;28;6565;-81
2021/09/04 00:35:54;;;;;;;;;59.50;48.50;29.50;30.20;;;;;;694482;28;6141;-80
2021/09/04 00:36:15;;;;;;;;;61.50;49.00;29.50;30.10;;;;;;696519;28;6167;-80
2021/09/04 00:36:37;;;;;;;;;61.25;50.00;29.50;30.20;;;;;;696436;28;6864;-81
2021/09/04 00:36:59;;;;;;;;;62.00;50.60;29.50;30.20;;;;;;696319;28;7331;-82
2021/09/04 00:37:20;;;;;;;;;59.40;47.00;29.50;31.20;;;;;;696178;28;6918;-81
2021/09/04 00:37:41;;;;;;;;;62.00;49.00;29.50;30.10;;;;;;696747;28;6155;-82
2021/09/04 00:38:01;;;;;;;;;61.00;48.00;29.50;30.10;;;;;;696955;28;6095;-82
2021/09/04 00:38:22;;;;;;;;;60.75;49.75;29.50;30.20;;;;;;696888;28;6016;-81
2021/09/04 00:38:43;;;;;;;;;60.00;48.50;29.50;30.20;;;;;;696834;28;5998;-78
2021/09/04 00:39:03;;;;;;;;;57.40;47.40;29.50;30.10;;;;;;696806;28;6078;-82
2021/09/04 00:39:24;;;;;;;;;62.00;51.00;29.50;30.00;;;;;;696922;28;6189;-82
2021/09/04 00:39:45;;;;;;;;;58.50;48.50;29.50;30.10;;;;;;696744;28;6110;-82
2021/09/04 00:40:07;;;;;;;;;57.80;47.00;29.50;30.00;;;;;;696795;28;6112;-82
2021/09/04 00:40:28;;;;;;;;;60.00;49.00;29.50;31.00;;;;;;696711;28;7717;-79
2021/09/04 00:40:49;;;;;;;;;57.00;47.50;29.50;30.00;;;;;;696844;28;6095;-79
2021/09/04 00:41:10;;;;;;;;;60.25;48.50;29.50;30.20;;;;;;696788;28;6136;-81
2021/09/04 00:41:34;;;;;;;;;59.00;48.50;29.50;29.70;;;;;;696409;28;6397;-80
2021/09/04 00:41:55;;;;;;;;;62.00;50.00;29.50;30.20;;;;;;696605;28;6277;-77
2021/09/04 00:42:19;;;;;;;;;57.40;47.20;29.50;30.70;;;;;;696596;28;6840;-79
2021/09/04 00:42:40;;;;;;;;;59.00;47.40;29.50;30.20;;;;;;696494;28;6509;-79
2021/09/04 00:43:02;;;;;;;;;57.00;46.75;;;;;;;;696551;28;6134;-80
2021/09/04 00:43:22;;;;;;;;;59.25;48.50;29.50;29.40;;;;;;698120;28;6410;-80
2021/09/04 00:43:44;;;;;;;;;59.00;47.00;29.50;30.30;;;;;;699263;28;6044;-80
2021/09/04 00:44:05;;;;;;;;;56.00;46.00;29.40;29.70;;;;;;699441;28;6506;-82
2021/09/04 00:44:26;;;;;;;;;61.20;49.40;29.50;30.20;;;;;;698668;28;6334;-81
2021/09/04 00:44:47;;;;;;;;;59.20;48.00;29.50;30.00;;;;;;696819;28;6196;-81
2021/09/04 00:45:08;;;;;;;;;61.60;49.00;29.50;31.20;;;;;;696838;28;5987;-78
2021/09/04 00:45:32;;;;;;;;;60.25;48.00;29.50;30.10;;;;;;696812;28;5322;-79
2021/09/04 00:45:53;;;;;;;;;60.00;48.25;29.40;29.40;;;;;;696352;28;8183;-81
2021/09/04 00:46:14;;;;;;;;;60.25;49.50;29.40;30.10;;;;;;696517;28;6879;-81
2021/09/04 00:46:34;;;;;;;;;55.50;46.50;29.40;30.10;;;;;;696489;28;6108;-81
2021/09/04 00:47:03;;;;;;;;;60.00;48.00;29.40;30.10;;;;;;696473;28;6132;-78
2021/09/04 00:47:23;;;;;;;;;59.60;47.60;29.40;30.10;;;;;;696492;28;6951;-79
2021/09/04 00:48:05;;;;;;;;;60.00;48.00;29.40;30.10;;;;;;696633;28;6118;-81
2021/09/04 00:48:26;;;;;;;;;56.00;46.00;29.40;30.30;;;;;;696665;28;6595;-81
2021/09/04 00:48:46;;;;;;;;;60.00;49.00;29.40;30.30;;;;;;696764;28;5996;-77
2021/09/04 00:49:07;;;;;;;;;56.80;46.00;29.40;30.10;;;;;;696348;28;6272;-79
2021/09/04 00:49:28;;;;;;;;;60.00;49.00;29.40;30.20;;;;;;696234;28;6148;-81
2021/09/04 00:49:50;;;;;;;;;57.60;46.40;29.30;30.10;;;;;;696452;28;6232;-79
2021/09/04 00:50:12;;;;;;;;;58.00;47.25;29.30;30.10;;;;;;696673;28;6108;-81
2021/09/04 00:50:35;;;;;;;;;56.75;46.25;29.30;30.10;;;;;;696635;28;6711;-80
2021/09/04 00:50:56;;;;;;;;;57.25;47.25;29.30;30.00;;;;;;696631;28;6301;-80
2021/09/04 00:51:17;;;;;;;;;59.40;48.40;29.30;30.20;;;;;;696867;28;6209;-77
2021/09/04 00:51:38;;;;;;;;;58.75;47.75;29.30;30.00;;;;;;696640;28;5722;-80
2021/09/04 00:51:59;;;;;;;;;57.60;46.80;29.30;30.10;;;;;;696586;28;6105;-77
2021/09/04 00:52:20;;;;;;;;;58.00;47.00;29.30;30.10;;;;;;696909;28;6794;-80
2021/09/04 00:52:41;;;;;;;;;56.67;47.67;29.40;31.30;;;;;;696912;28;6230;-80
2021/09/04 00:53:03;;;;;;;;;58.00;47.00;29.40;30.10;;;;;;696812;28;6076;-81
2021/09/04 00:53:24;;;;;;;;;54.00;44.00;29.30;29.40;;;;;;696393;28;8179;-80
2021/09/04 00:53:45;;;;;;;;;57.00;47.00;29.30;30.10;;;;;;696624;28;5634;-81
2021/09/04 00:54:06;;;;;;;;;59.50;48.00;29.30;30.00;;;;;;696363;28;6444;-81
2021/09/04 00:54:28;;;;;;;;;59.50;48.00;29.30;30.00;;;;;;696692;28;6033;-80
2021/09/04 00:54:49;;;;;;;;;57.00;46.60;29.30;30.00;;;;;;696569;28;6057;-82
2021/09/04 00:55:10;;;;;;;;;53.60;45.00;29.30;30.00;;;;;;696672;28;6289;-81
2021/09/04 00:55:31;;;;;;;;;58.25;47.00;29.30;30.00;;;;;;696970;28;5998;-81
2021/09/04 00:55:53;;;;;;;;;58.50;46.00;29.30;30.00;;;;;;696873;28;6006;-81
2021/09/04 00:56:14;;;;;;;;;57.40;46.40;29.30;29.30;;;;;;696530;28;6378;-80
2021/09/04 00:56:38;;;;;;;;;59.40;47.40;29.30;30.00;;;;;;696586;28;6448;-81
2021/09/04 00:56:59;;;;;;;;;52.25;43.25;29.30;30.00;;;;;;696271;28;6422;-81
2021/09/04 00:57:21;;;;;;;;;51.75;43.25;29.30;30.00;;;;;;696666;28;6162;-81
2021/09/04 00:57:41;;;;;;;;;54.00;44.00;29.30;30.00;;;;;;696609;28;6280;-81
2021/09/04 00:58:03;;;;;;;;;55.00;45.33;29.30;30.00;;;;;;696503;28;6305;-81
2021/09/04 00:58:24;;;;;;;;;57.20;46.00;29.30;30.00;;;;;;696636;28;6386;-81
2021/09/04 00:58:45;;;;;;;;;56.40;47.00;29.30;31.10;;;;;;696878;28;6116;-81
2021/09/04 00:59:08;;;;;;;;;56.25;44.75;29.30;29.30;;;;;;696385;28;6613;-79
2021/09/04 00:59:29;;;;;;;;;53.20;43.40;29.30;30.00;;;;;;696432;28;6420;-81
2021/09/04 00:59:49;;;;;;;;;53.75;43.75;29.30;30.00;;;;;;696602;28;6038;-81
2021/09/04 01:00:11;;;;;;;;;55.00;45.00;29.30;30.00;;;;;;696484;28;6090;-81
2021/09/04 01:00:32;;;;;;;;;59.00;47.00;29.30;30.00;;;;;;696564;28;6125;-81
2021/09/04 01:00:54;;;;;;;;;56.00;46.00;29.30;30.00;;;;;;696603;28;6489;-80
2021/09/04 01:01:14;;;;;;;;;58.25;45.00;29.30;30.00;;;;;;696757;28;6431;-80
2021/09/04 01:01:36;;;;;;;;;51.75;44.00;29.30;29.90;;;;;;696894;28;6197;-81
2021/09/04 01:01:56;;;;;;;;;54.40;45.60;29.30;29.90;;;;;;696700;28;6415;-76
2021/09/04 01:02:17;;;;;;;;;55.00;46.00;29.30;30.00;;;;;;696818;28;6743;-80
2021/09/04 01:02:38;;;;;;;;;54.75;45.50;29.30;29.90;;;;;;696855;28;6161;-78
2021/09/04 01:02:59;;;;;;;;;57.50;47.50;29.30;29.90;;;;;;696714;28;6192;-80
2021/09/04 01:03:20;;;;;;;;;53.25;44.00;29.30;30.00;;;;;;696856;28;6106;-80
2021/09/04 01:03:41;;;;;;;;;51.60;42.00;29.30;30.00;;;;;;696450;28;7525;-80
2021/09/04 01:04:03;;;;;;;;;55.50;45.75;29.30;30.00;;;;;;696851;28;5158;-81
2021/09/04 01:04:23;;;;;;;;;56.00;45.00;29.30;29.90;;;;;;696776;28;6760;-81
2021/09/04 01:04:46;;;;;;;;;57.50;47.50;;;;;;;;696926;28;6027;-78
2021/09/04 01:05:08;;;;;;;;;54.75;44.25;29.30;29.20;;;;;;696542;28;8412;-79
2021/09/04 01:05:28;;;;;;;;;58.25;46.50;29.30;30.00;;;;;;696760;28;6437;-80
2021/09/04 01:05:50;;;;;;;;;54.75;45.00;29.30;30.00;;;;;;696858;28;6138;-80
2021/09/04 01:06:14;;;;;;;;;54.75;44.25;29.30;29.90;;;;;;696443;28;6859;-79
2021/09/04 01:06:35;;;;;;;;;54.20;45.00;29.30;30.00;;;;;;696399;28;6265;-81
2021/09/04 01:06:57;;;;;;;;;57.25;46.50;29.30;29.90;;;;;;696563;28;6047;-82
2021/09/04 01:07:17;;;;;;;;;53.25;43.00;29.30;29.90;;;;;;696812;28;6410;-80
2021/09/04 01:07:39;;;;;;;;;54.50;45.00;29.30;29.90;;;;;;696745;28;7385;-81
2021/09/04 01:08:00;;;;;;;;;57.00;46.00;29.30;29.90;;;;;;696753;28;6324;-81
2021/09/04 01:08:21;;;;;;;;;54.75;45.00;29.40;29.90;;;;;;696611;28;6083;-80
2021/09/04 01:08:43;;;;;;;;;54.00;44.67;29.30;29.80;;;;;;696927;28;6742;-82
2021/09/04 01:09:05;;;;;;;;;52.50;43.00;29.30;29.80;;;;;;696518;28;6422;-79
2021/09/04 01:09:26;;;;;;;;;52.80;43.60;29.30;29.80;;;;;;696819;28;7340;-75
2021/09/04 01:09:47;;;;;;;;;52.25;43.25;29.30;29.80;;;;;;697135;28;6050;-77
2021/09/04 01:10:10;;;;;;;;;54.80;44.00;29.30;29.80;;;;;;696929;28;6800;-78
2021/09/04 01:10:32;;;;;;;;;54.00;43.50;29.30;29.80;;;;;;696765;28;7771;-77
2021/09/04 01:10:53;;;;;;;;;52.75;44.00;29.30;29.80;;;;;;696885;28;7347;-80
2021/09/04 01:11:14;;;;;;;;;51.20;41.60;29.40;29.80;;;;;;696894;28;6230;-80
2021/09/04 01:11:35;;;;;;;;;53.00;43.80;29.30;29.70;;;;;;696839;28;7679;-82
2021/09/04 01:11:56;;;;;;;;;52.00;43.00;29.30;29.80;;;;;;696763;28;6078;-82
2021/09/04 01:12:16;;;;;;;;;54.67;45.00;29.30;29.80;;;;;;696461;28;6284;-78
2021/09/04 01:12:39;;;;;;;;;51.25;42.25;29.40;29.80;;;;;;693828;28;6240;-82
2021/09/04 01:12:59;;;;;;;;;53.00;44.00;29.40;29.80;;;;;;693742;28;6266;-83
2021/09/04 01:13:21;;;;;;;;;51.00;42.50;29.40;29.80;;;;;;693706;28;7240;-82
2021/09/04 01:13:43;;;;;;;;;51.00;42.50;29.30;29.70;;;;;;693773;28;6444;-83
2021/09/04 01:14:04;;;;;;;;;50.20;42.00;29.30;29.70;;;;;;694621;28;6814;-82
2021/09/04 01:14:25;;;;;;;;;52.50;44.00;29.30;29.70;;;;;;696623;28;5997;-80
2021/09/04 01:14:46;;;;;;;;;50.00;41.00;29.30;29.80;;;;;;696690;28;6089;-80
2021/09/04 01:15:09;;;;;;;;;51.75;44.00;29.40;29.80;;;;;;696760;28;6203;-78
2021/09/04 01:15:30;;;;;;;;;54.80;43.20;29.40;29.80;;;;;;696724;28;6423;-79
2021/09/04 01:15:51;;;;;;;;;46.00;39.00;29.40;29.80;;;;;;696822;28;6784;-80
2021/09/04 01:16:12;;;;;;;;;55.75;45.25;29.30;28.90;;;;;;696780;28;6261;-81
2021/09/04 01:16:38;;;;;;;;;50.20;43.00;29.30;29.80;;;;;;696827;28;6326;-79
2021/09/04 01:16:58;;;;;;;;;55.75;45.50;29.40;30.80;;;;;;696747;28;6204;-77
2021/09/04 01:17:19;;;;;;;;;54.00;43.60;29.40;29.80;;;;;;696555;28;7383;-79
2021/09/04 01:17:40;;;;;;;;;51.00;42.25;29.30;29.70;;;;;;696803;28;5990;-79
2021/09/04 01:18:02;;;;;;;;;52.50;44.00;29.40;29.70;;;;;;696870;28;5969;-80
2021/09/04 01:18:23;;;;;;;;;56.00;44.60;29.40;29.80;;;;;;696564;28;6485;-78
2021/09/04 01:18:44;;;;;;;;;49.75;41.25;29.40;29.80;;;;;;696689;28;5988;-79
2021/09/04 01:19:06;;;;;;;;;54.00;44.00;29.40;29.80;;;;;;696790;28;5949;-79
2021/09/04 01:19:27;;;;;;;;;49.00;41.75;29.40;29.80;;;;;;696330;28;6443;-79
2021/09/04 01:19:47;;;;;;;;;54.50;44.25;29.40;29.80;;;;;;696654;28;6159;-79
2021/09/04 01:20:08;;;;;;;;;50.50;42.00;29.40;29.70;;;;;;696543;28;6150;-77
2021/09/04 01:20:30;;;;;;;;;51.75;42.75;29.40;29.70;;;;;;696808;28;5970;-79
2021/09/04 01:20:51;;;;;;;;;54.25;44.50;29.40;29.80;;;;;;696736;28;6410;-80
2021/09/04 01:21:12;;;;;;;;;49.00;41.00;29.40;29.70;;;;;;696775;28;5987;-79
2021/09/04 01:21:34;;;;;;;;;50.25;41.75;29.40;29.70;;;;;;696522;28;5983;-78
2021/09/04 01:21:56;;;;;;;;;51.00;41.00;29.40;29.70;;;;;;696364;28;7035;-80
2021/09/04 01:22:17;;;;;;;;;53.25;43.75;29.30;29.60;;;;;;696812;28;6591;-76
2021/09/04 01:22:38;;;;;;;;;49.00;40.00;29.40;29.70;;;;;;696670;28;6395;-79
2021/09/04 01:22:59;;;;;;;;;53.25;43.00;29.40;29.70;;;;;;696720;28;5955;-80
2021/09/04 01:23:19;;;;;;;;;48.20;39.60;29.30;29.60;;;;;;697012;28;6202;-79
2021/09/04 01:23:41;;;;;;;;;50.50;41.75;29.40;29.70;;;;;;696563;28;5963;-81
2021/09/04 01:24:05;;;;;;;;;50.00;40.40;29.40;29.70;;;;;;696538;28;7428;-77
2021/09/04 01:24:25;;;;;;;;;49.80;41.40;29.40;29.70;;;;;;696018;28;6782;-79
2021/09/04 01:24:50;;;;;;;;;53.75;43.75;29.40;29.60;;;;;;693844;28;5482;-82
2021/09/04 01:25:11;;;;;;;;;51.25;42.75;29.40;29.70;;;;;;693695;28;6315;-82
2021/09/04 01:25:33;;;;;;;;;47.40;39.00;29.40;29.70;;;;;;693799;28;6244;-81
2021/09/04 01:25:55;;;;;;;;;47.20;39.60;29.40;29.70;;;;;;693496;28;8351;-79
2021/09/04 01:26:16;;;;;;;;;48.50;40.50;29.40;29.70;;;;;;694978;28;6470;-80
2021/09/04 01:26:36;;;;;;;;;51.20;42.60;29.40;29.70;;;;;;696707;28;6990;-80
2021/09/04 01:26:59;;;;;;;;;48.00;40.00;29.40;29.70;;;;;;696470;28;6197;-80
2021/09/04 01:27:20;;;;;;;;;50.25;42.75;29.40;29.70;;;;;;693608;28;7073;-80
2021/09/04 01:27:40;;;;;;;;;47.50;39.00;29.40;29.60;;;;;;694300;28;6373;-79
2021/09/04 01:28:04;;;;;;;;;48.00;41.00;29.40;29.70;;;;;;696475;28;6132;-82
2021/09/04 01:28:24;;;;;;;;;49.50;41.50;29.40;29.70;;;;;;696342;28;6278;-81
2021/09/04 01:28:45;;;;;;;;;49.00;41.00;29.40;29.60;;;;;;696483;28;6159;-81
2021/09/04 01:29:06;;;;;;;;;49.67;41.33;29.40;29.70;;;;;;696489;28;6756;-77
2021/09/04 01:29:27;;;;;;;;;49.50;41.50;29.40;29.80;;;;;;696633;28;6082;-80
2021/09/04 01:29:48;;;;;;;;;47.00;39.60;29.40;29.70;;;;;;696583;28;6066;-79
2021/09/04 01:30:10;;;;;;;;;48.00;39.00;29.40;29.70;;;;;;696683;28;6200;-80
2021/09/04 01:30:33;;;;;;;;;50.00;41.25;29.40;29.60;;;;;;696616;28;6413;-80
2021/09/04 01:30:53;;;;;;;;;50.00;40.00;29.40;29.70;;;;;;696500;28;6259;-81
2021/09/04 01:31:14;;;;;;;;;50.00;41.00;29.40;29.60;;;;;;696899;28;6074;-79
2021/09/04 01:31:35;;;;;;;;;47.80;39.80;29.40;29.70;;;;;;696609;28;6139;-81
2021/09/04 01:31:56;;;;;;;;;51.00;42.00;29.40;29.70;;;;;;696484;28;5978;-79
2021/09/04 01:32:16;;;;;;;;;49.75;41.75;29.40;29.60;;;;;;696328;28;5934;-76
2021/09/04 01:32:37;;;;;;;;;49.75;41.50;29.40;28.90;;;;;;696463;28;6113;-77
2021/09/04 01:32:59;;;;;;;;;50.75;42.75;;;;;;;;696480;28;6208;-81
2021/09/04 01:33:19;;;;;;;;;51.60;42.80;29.40;28.90;;;;;;693601;28;6853;-79
2021/09/04 01:33:44;;;;;;;;;49.25;41.00;29.40;29.60;;;;;;693676;28;6181;-81
2021/09/04 01:34:05;;;;;;;;;46.00;39.00;29.40;29.60;;;;;;694535;28;6589;-77
2021/09/04 01:34:25;;;;;;;;;50.00;41.00;29.40;29.70;;;;;;693721;28;6289;-78
2021/09/04 01:34:46;;;;;;;;;49.50;42.00;29.40;29.60;;;;;;693654;28;6138;-78
2021/09/04 01:35:09;;;;;;;;;43.60;37.60;29.40;29.60;;;;;;694484;28;6205;-79
2021/09/04 01:35:30;;;;;;;;;49.75;41.75;29.40;29.50;;;;;;693546;28;6537;-82
2021/09/04 01:35:52;;;;;;;;;51.75;42.00;;;;;;;;693474;28;6853;-78
2021/09/04 01:36:30;;;;;;;;;47.20;39.20;29.40;28.80;;;;;;691390;28;8406;-81
2021/09/04 01:36:50;;;;;;;;;50.00;41.40;29.40;29.50;;;;;;690575;28;6604;-80
2021/09/04 01:37:13;;;;;;;;;48.20;40.80;29.40;29.50;;;;;;690991;28;6209;-81
2021/09/04 01:37:34;;;;;;;;;48.40;40.40;29.40;29.60;;;;;;693582;28;6411;-80
2021/09/04 01:37:54;;;;;;;;;52.50;42.00;29.40;29.60;;;;;;691117;28;6082;-79
2021/09/04 01:38:16;;;;;;;;;47.00;39.67;29.40;29.70;;;;;;693600;28;6017;-80
2021/09/04 01:38:36;;;;;;;;;51.50;41.75;29.40;28.90;;;;;;694415;28;6793;-76
2021/09/04 01:38:58;;;;;;;;;45.00;35.00;29.40;29.70;;;;;;696367;28;6260;-78
2021/09/04 01:39:20;;;;;;;;;45.40;38.00;29.40;29.70;;;;;;696407;28;6348;-81
2021/09/04 01:39:41;;;;;;;;;48.60;40.60;29.40;29.60;;;;;;696327;28;6505;-80
2021/09/04 01:40:07;;;;;;;;;49.00;41.00;29.40;29.70;;;;;;696661;28;6118;-80
2021/09/04 01:40:27;;;;;;;;;46.40;39.80;29.40;29.80;;;;;;696305;28;7513;-79
2021/09/04 01:40:48;;;;;;;;;45.00;39.00;29.40;29.70;;;;;;696586;28;7525;-80
2021/09/04 01:41:09;;;;;;;;;48.80;40.40;29.40;29.70;;;;;;696744;28;6161;-79
2021/09/04 01:41:30;;;;;;;;;49.00;40.33;29.40;29.80;;;;;;696782;28;6001;-79
2021/09/04 01:41:51;;;;;;;;;48.40;41.00;29.40;29.70;;;;;;696736;28;6213;-80
2021/09/04 01:42:12;;;;;;;;;47.20;38.60;29.50;29.80;;;;;;696462;28;6161;-79
2021/09/04 01:42:33;;;;;;;;;48.50;41.00;;;;;;;;696294;28;6159;-80
2021/09/04 01:42:54;;;;;;;;;46.50;39.00;29.50;29.10;;;;;;696253;28;8179;-81
2021/09/04 01:43:14;;;;;;;;;46.50;39.50;29.50;29.80;;;;;;695587;28;6144;-79
2021/09/04 01:43:35;;;;;;;;;45.00;39.00;29.50;29.80;;;;;;696423;28;6122;-80
2021/09/04 01:43:58;;;;;;;;;50.00;40.00;29.50;29.80;;;;;;696458;28;6205;-80
2021/09/04 01:44:19;;;;;;;;;46.00;38.80;29.50;29.70;;;;;;696583;28;6623;-81
2021/09/04 01:44:39;;;;;;;;;46.50;39.75;29.50;29.60;;;;;;696688;28;6063;-80
2021/09/04 01:45:00;;;;;;;;;46.00;38.50;29.50;29.60;;;;;;696656;28;6039;-81
2021/09/04 01:45:21;;;;;;;;;47.00;40.00;29.50;29.70;;;;;;696740;28;5988;-78
2021/09/04 01:45:42;;;;;;;;;45.40;37.40;29.50;29.80;;;;;;696219;28;6164;-79
2021/09/04 01:46:05;;;;;;;;;45.60;37.60;;;;;;;;696463;28;6892;-80
2021/09/04 01:46:26;;;;;;;;;42.40;36.80;29.50;29.00;;;;;;696426;28;8503;-81
2021/09/04 01:46:47;;;;;;;;;47.00;39.80;29.50;29.70;;;;;;696205;28;6427;-78
2021/09/04 01:47:08;;;;;;;;;46.00;39.80;29.50;29.80;;;;;;696439;28;6198;-81
2021/09/04 01:47:29;;;;;;;;;48.00;41.00;29.50;29.70;;;;;;693301;28;6159;-82
2021/09/04 01:47:49;;;;;;;;;47.00;39.75;29.50;29.70;;;;;;693775;28;6674;-80
2021/09/04 01:48:10;;;;;;;;;48.50;40.50;29.50;29.60;;;;;;694273;28;6041;-78
2021/09/04 01:48:31;;;;;;;;;48.50;40.75;29.50;29.60;;;;;;696674;28;6718;-80
2021/09/04 01:48:52;;;;;;;;;46.00;37.60;29.50;29.70;;;;;;696156;28;6152;-81
2021/09/04 01:49:12;;;;;;;;;45.40;38.00;29.50;29.70;;;;;;696460;28;6165;-80
2021/09/04 01:49:35;;;;;;;;;44.00;37.00;29.50;30.40;;;;;;696671;28;6114;-79
2021/09/04 01:49:57;;;;;;;;;42.40;36.40;29.50;29.50;;;;;;696073;28;6598;-80
2021/09/04 01:50:18;;;;;;;;;47.00;38.50;29.60;29.70;;;;;;696314;28;8118;-80
2021/09/04 01:50:39;;;;;;;;;49.40;42.00;29.50;30.00;;;;;;696467;28;6316;-79
2021/09/04 01:51:00;;;;;;;;;44.00;38.00;29.50;29.60;;;;;;696326;28;6251;-81
2021/09/04 01:51:21;;;;;;;;;47.75;40.00;29.60;29.70;;;;;;696626;28;6008;-82
2021/09/04 01:51:42;;;;;;;;;45.50;39.00;29.60;29.80;;;;;;696257;28;6067;-81